Airville, Pennsylvania
Current Conditions -  °F | °C
As of 1:53 AM on Saturday 25 Oct 2014 (Local Time) from KLNS Reporting Station
Clear Clear  
Wind Chill:   Ceiling: Unl
Heat Index:   Visibility: 10mi
Dew Point:   Wind: 8mph
Humidity: 73%   Direction: 270°W
Pressure: 29.93"   Gusts: NA
Location:  39.83°N, 76.41°W
Report Text: KLNS 250553Z AUTO 27007KT 10SM CLR 08/03 A2993 RMK AO2 SLP134 T00780033 10133 20067 51004
Loading
Personal Weather Stations






























Interactive Weather Map New forecast layout! Learn more

10-Day Weather Forecast

Advertisements
Track Severe Weather on mobile